Time;durP1;ratioP1;P1;durP2;ratioP2;P2;SDS_P1;SDS_P2;PMS_P1;PMS_P2;Temp;Humidity;BMP_temperature;BMP_pressure;BME280_temperature;BME280_humidity;BME280_pressure;Samples;Min_cycle;Max_cycle;Signal;HPM_P1;HPM_P2
2023/09/03 00:02:18;;;;;;;42.15;40.00;;;22.00;99.90;;;;;;5031121;28;20038;-74
2023/09/03 00:04:44;;;;;;;36.53;34.67;;;22.00;99.90;;;;;;5032030;28;20033;-74
2023/09/03 00:07:10;;;;;;;40.45;38.35;;;22.00;99.90;;;;;;5033467;28;20509;-74
2023/09/03 00:09:36;;;;;;;33.85;32.00;;;22.00;99.90;;;;;;5033693;28;20048;-74
2023/09/03 00:12:03;;;;;;;31.42;29.73;;;22.00;99.90;;;;;;5032703;28;20037;-74
2023/09/03 00:14:29;;;;;;;33.08;31.27;;;22.00;99.90;;;;;;5031538;28;20030;-74
2023/09/03 00:16:55;;;;;;;35.10;33.15;;;22.00;99.90;;;;;;5030953;28;20037;-74
2023/09/03 00:19:23;;;;;;;34.45;32.58;;;21.90;99.90;;;;;;5031947;28;20033;-74
2023/09/03 00:21:49;;;;;;;36.28;34.38;;;21.80;99.90;;;;;;5032852;28;20033;-74
2023/09/03 00:24:15;;;;;;;43.67;41.45;;;21.70;99.90;;;;;;5032953;28;20021;-73
2023/09/03 00:26:41;;;;;;;44.65;42.22;;;21.70;99.90;;;;;;5032560;28;20156;-74
2023/09/03 00:29:07;;;;;;;47.67;45.15;;;21.70;99.90;;;;;;5033044;28;20032;-74
2023/09/03 00:31:33;;;;;;;38.60;36.42;;;21.70;99.90;;;;;;5030503;28;20037;-75
2023/09/03 00:33:59;;;;;;;46.40;43.95;;;21.70;99.90;;;;;;5031728;28;20032;-73
2023/09/03 00:36:25;;;;;;;40.90;38.83;;;21.60;99.90;;;;;;5031368;28;20033;-74
2023/09/03 00:38:52;;;;;;;41.47;39.28;;;21.60;99.90;;;;;;5031443;28;20034;-74
2023/09/03 00:41:18;;;;;;;39.00;36.80;;;21.60;99.90;;;;;;5031307;28;20030;-74
2023/09/03 00:43:45;;;;;;;30.92;29.33;;;21.50;99.90;;;;;;5032767;28;20018;-74
2023/09/03 00:46:11;;;;;;;26.08;24.55;;;21.40;99.90;;;;;;5030480;28;20498;-74
2023/09/03 00:48:38;;;;;;;33.38;31.30;;;21.50;99.90;;;;;;5031568;28;20029;-74
2023/09/03 00:51:06;;;;;;;26.42;24.92;;;21.60;99.90;;;;;;5031063;28;20036;-74
2023/09/03 00:53:34;;;;;;;25.23;23.80;;;21.60;99.90;;;;;;5032447;28;20486;-74
2023/09/03 00:56:00;;;;;;;24.60;23.27;;;21.60;99.90;;;;;;5032293;28;20036;-74
2023/09/03 00:58:26;;;;;;;25.45;23.98;;;21.60;99.90;;;;;;5031448;28;20026;-74
2023/09/03 01:00:52;;;;;;;33.15;31.42;;;21.50;99.90;;;;;;5031387;28;20034;-74
2023/09/03 01:03:18;;;;;;;32.50;30.83;;;21.50;99.90;;;;;;5014534;28;20034;-73
2023/09/03 01:05:44;;;;;;;29.38;27.85;;;21.50;99.90;;;;;;5030819;28;20386;-75
2023/09/03 01:08:10;;;;;;;36.60;34.67;;;21.40;99.90;;;;;;5032369;28;20037;-74
2023/09/03 01:10:39;;;;;;;24.25;22.98;;;21.40;99.90;;;;;;5031218;28;20097;-74
2023/09/03 01:13:15;;;;;;;23.83;22.35;;;21.30;99.90;;;;;;5031196;28;20022;-74
2023/09/03 01:15:44;;;;;;;21.77;20.55;;;21.30;99.90;;;;;;5029904;28;20037;-74
2023/09/03 01:18:18;;;;;;;21.75;20.55;;;21.30;99.90;;;;;;5031092;28;20025;-74
2023/09/03 01:20:58;;;;;;;22.13;20.73;;;21.30;99.90;;;;;;5030601;28;20042;-74
2023/09/03 01:23:52;;;;;;;24.48;23.08;;;21.20;99.90;;;;;;5034388;28;20032;-74
2023/09/03 01:26:24;;;;;;;24.27;22.98;;;21.30;99.90;;;;;;5038429;28;20041;-74
2023/09/03 01:28:50;;;;;;;30.20;28.52;;;21.20;99.90;;;;;;5038407;28;20029;-74
2023/09/03 01:31:17;;;;;;;20.92;19.73;;;21.20;99.90;;;;;;5036868;28;20486;-74
2023/09/03 01:33:44;;;;;;;25.52;24.10;;;21.20;99.90;;;;;;5037366;28;20036;-74
2023/09/03 01:36:11;;;;;;;24.45;23.00;;;21.20;99.90;;;;;;5037194;28;20038;-74
2023/09/03 01:38:37;;;;;;;21.13;19.92;;;21.20;99.90;;;;;;5037639;28;20021;-74
2023/09/03 01:41:03;;;;;;;20.35;19.05;;;21.10;99.90;;;;;;5020551;28;20045;-74
2023/09/03 01:43:29;;;;;;;19.27;18.17;;;21.10;99.90;;;;;;5037115;28;20026;-74
2023/09/03 01:46:08;;;;;;;18.08;16.92;;;21.00;99.90;;;;;;5036646;28;20052;-74
2023/09/03 01:48:49;;;;;;;18.23;17.05;;;21.00;99.90;;;;;;5038665;28;20017;-74
2023/09/03 01:51:37;;;;;;;22.35;21.15;;;21.00;99.90;;;;;;5037071;28;20029;-74
2023/09/03 01:54:25;;;;;;;15.88;14.93;;;20.90;99.90;;;;;;5037214;28;20086;-74
2023/09/03 01:57:12;;;;;;;17.45;16.45;;;21.00;99.90;;;;;;5036567;28;20478;-74
2023/09/03 01:59:43;;;;;;;17.45;16.45;;;21.00;99.90;;;;;;5034619;28;20017;-74
2023/09/03 02:02:12;;;;;;;16.38;15.38;;;20.90;99.90;;;;;;5027759;28;20029;-74
2023/09/03 02:04:38;;;;;;;16.88;15.70;;;20.90;99.90;;;;;;5035835;28;20021;-74
2023/09/03 02:07:04;;;;;;;19.42;18.10;;;20.90;99.90;;;;;;5035297;28;20402;-74
2023/09/03 02:09:31;;;;;;;18.42;17.10;;;20.90;99.90;;;;;;5035961;28;20025;-74
2023/09/03 02:11:57;;;;;;;15.07;14.05;;;20.90;99.90;;;;;;5036832;28;20029;-74
2023/09/03 02:14:23;;;;;;;15.68;14.57;;;20.80;99.90;;;;;;5035699;28;20025;-74
2023/09/03 02:16:50;;;;;;;20.02;18.45;;;20.70;99.90;;;;;;5036248;28;20056;-74
2023/09/03 02:19:16;;;;;;;22.38;20.77;;;20.70;99.90;;;;;;5037032;28;20040;-75
2023/09/03 02:21:42;;;;;;;19.27;17.98;;;20.80;99.90;;;;;;5036853;28;20041;-74
2023/09/03 02:24:09;;;;;;;23.17;21.73;;;20.70;99.90;;;;;;5035303;28;20450;-75
2023/09/03 02:26:45;;;;;;;16.95;15.95;;;20.70;99.90;;;;;;5036769;28;20041;-74
2023/09/03 02:29:11;;;;;;;22.98;21.63;;;20.70;99.90;;;;;;5037067;28;20029;-74
2023/09/03 02:31:37;;;;;;;17.95;16.80;;;20.70;99.90;;;;;;5034870;28;20033;-74
2023/09/03 02:34:04;;;;;;;14.48;13.60;;;20.70;99.90;;;;;;5036216;28;20033;-74
2023/09/03 02:36:31;;;;;;;20.20;18.92;;;20.70;99.90;;;;;;5016505;28;20475;-74
2023/09/03 02:39:04;;;;;;;17.63;16.33;;;20.70;99.90;;;;;;5034821;28;20053;-75
2023/09/03 02:41:31;;;;;;;17.10;15.98;;;20.70;99.90;;;;;;5033132;28;20486;-74
2023/09/03 02:43:58;;;;;;;16.92;15.73;;;20.60;99.90;;;;;;5033840;28;20025;-75
2023/09/03 02:46:24;;;;;;;17.05;15.98;;;20.60;99.90;;;;;;5034472;28;20053;-74
2023/09/03 02:48:50;;;;;;;17.02;16.00;;;20.70;99.90;;;;;;5033695;28;20029;-74
2023/09/03 02:51:17;;;;;;;19.02;17.67;;;20.70;99.90;;;;;;5034513;28;20459;-74
2023/09/03 02:53:45;;;;;;;16.92;15.93;;;20.70;99.90;;;;;;5034464;28;20053;-75
2023/09/03 02:56:14;;;;;;;15.60;14.25;;;20.60;99.90;;;;;;5034066;28;20029;-74
2023/09/03 02:58:41;;;;;;;19.75;18.50;;;20.60;99.90;;;;;;5034804;28;20033;-74
2023/09/03 03:01:12;;;;;;;28.88;27.27;;;20.60;99.90;;;;;;5033823;28;20042;-75
2023/09/03 03:03:38;;;;;;;17.58;16.45;;;20.60;99.90;;;;;;5034461;28;20056;-74
2023/09/03 03:06:04;;;;;;;19.65;18.38;;;20.60;99.90;;;;;;5034316;28;20037;-74
2023/09/03 03:08:30;;;;;;;20.30;18.92;;;20.60;99.90;;;;;;5033512;28;20036;-74
2023/09/03 03:11:08;;;;;;;23.92;22.13;;;20.60;99.90;;;;;;5032674;28;20025;-74
2023/09/03 03:13:35;;;;;;;23.42;21.88;;;20.60;99.90;;;;;;5034292;28;20041;-74
2023/09/03 03:16:06;;;;;;;18.23;17.23;;;20.60;99.90;;;;;;5032353;28;20433;-74
2023/09/03 03:18:34;;;;;;;14.13;13.23;;;20.60;99.90;;;;;;5033068;28;20052;-74
2023/09/03 03:21:10;;;;;;;13.25;12.32;;;20.60;99.90;;;;;;5033982;28;20478;-75
2023/09/03 03:23:36;;;;;;;12.48;11.68;;;20.60;99.90;;;;;;5032898;28;20025;-74
2023/09/03 03:26:03;;;;;;;14.07;12.90;;;20.60;99.90;;;;;;5032350;28;20390;-74
2023/09/03 03:28:33;;;;;;;16.73;15.65;;;20.60;99.90;;;;;;5032914;28;20022;-74
2023/09/03 03:31:12;;;;;;;15.98;14.98;;;20.60;99.90;;;;;;5033367;28;20042;-74
2023/09/03 03:33:39;;;;;;;27.10;25.27;;;20.70;99.90;;;;;;5032799;28;20031;-74
2023/09/03 03:36:05;;;;;;;40.10;37.80;;;20.60;99.90;;;;;;5032490;28;20037;-74
2023/09/03 03:38:32;;;;;;;37.50;35.35;;;20.60;99.90;;;;;;5032701;28;20025;-74
2023/09/03 03:41:10;;;;;;;35.85;33.85;;;20.60;99.90;;;;;;5031892;28;20487;-74
2023/09/03 03:43:37;;;;;;;32.78;30.75;;;20.70;99.90;;;;;;5033649;28;20032;-74
2023/09/03 03:46:04;;;;;;;30.05;28.30;;;20.70;99.90;;;;;;5031226;28;20053;-74
2023/09/03 03:48:30;;;;;;;53.28;50.35;;;20.70;99.90;;;;;;5033778;28;20068;-74
2023/09/03 03:50:56;;;;;;;39.30;36.90;;;20.70;99.90;;;;;;5032048;28;20018;-74
2023/09/03 03:53:23;;;;;;;32.45;30.48;;;20.60;99.90;;;;;;5032426;28;20060;-75
2023/09/03 03:56:06;;;;;;;47.55;44.83;;;20.60;99.90;;;;;;5033009;28;20092;-74
2023/09/03 03:58:34;;;;;;;50.72;48.20;;;20.70;99.90;;;;;;5032526;28;20363;-74
2023/09/03 04:01:00;;;;;;;50.17;47.60;;;20.90;99.90;;;;;;5031483;28;20486;-74
2023/09/03 04:03:27;;;;;;;29.58;27.90;;;20.90;99.90;;;;;;5032195;28;20036;-74
2023/09/03 04:06:01;;;;;;;29.60;27.90;;;20.90;99.90;;;;;;5031905;28;20033;-74
2023/09/03 04:08:29;;;;;;;48.83;46.15;;;21.00;99.90;;;;;;5031947;28;20374;-74
2023/09/03 04:10:59;;;;;;;46.20;43.63;;;21.00;99.90;;;;;;5031828;28;20044;-74
2023/09/03 04:13:26;;;;;;;50.60;47.75;;;21.10;99.90;;;;;;5033242;28;20378;-74
2023/09/03 04:15:55;;;;;;;88.75;84.32;;;21.10;99.90;;;;;;5031415;28;20040;-74
2023/09/03 04:18:22;;;;;;;87.55;82.90;;;21.10;99.90;;;;;;5031892;28;20026;-75
2023/09/03 04:20:55;;;;;;;72.63;68.80;;;21.10;99.90;;;;;;5031672;28;20029;-74
2023/09/03 04:23:21;;;;;;;83.32;78.88;;;21.10;99.90;;;;;;5031496;28;20025;-74
2023/09/03 04:25:47;;;;;;;51.70;48.80;;;21.10;99.90;;;;;;5031620;28;20048;-74
2023/09/03 04:28:13;;;;;;;62.50;59.10;;;21.10;99.90;;;;;;5031720;28;20048;-74
2023/09/03 04:30:40;;;;;;;51.17;48.35;;;21.10;99.90;;;;;;5030970;28;20033;-74
2023/09/03 04:33:07;;;;;;;39.75;37.55;;;21.10;99.90;;;;;;5031630;28;20481;-74
2023/09/03 04:35:36;;;;;;;35.38;33.45;;;21.10;99.90;;;;;;5014535;28;20040;-74
2023/09/03 04:38:02;;;;;;;41.17;38.97;;;21.10;99.90;;;;;;5031254;28;20037;-74
2023/09/03 04:40:33;;;;;;;34.97;33.13;;;21.00;99.90;;;;;;5031435;28;20029;-75
2023/09/03 04:42:59;;;;;;;31.77;29.77;;;20.90;99.90;;;;;;5031195;28;20045;-74
2023/09/03 04:45:25;;;;;;;26.80;25.20;;;20.90;99.90;;;;;;5032060;28;20386;-74
2023/09/03 04:47:51;;;;;;;36.40;34.25;;;20.90;99.90;;;;;;5032673;28;20033;-74
2023/09/03 04:50:17;;;;;;;31.98;30.27;;;20.90;99.90;;;;;;5031171;28;20040;-74
2023/09/03 04:52:44;;;;;;;33.13;31.10;;;20.90;99.90;;;;;;5030649;28;20058;-74
2023/09/03 04:55:11;;;;;;;26.17;24.63;;;20.90;99.90;;;;;;5031304;28;20466;-75
2023/09/03 04:57:37;;;;;;;33.50;31.63;;;20.90;99.90;;;;;;5010840;28;20103;-74
2023/09/03 05:00:07;;;;;;;28.85;27.23;;;20.90;99.90;;;;;;5011005;28;20487;-74
2023/09/03 05:02:34;;;;;;;27.08;25.58;;;20.90;99.90;;;;;;5032026;28;20037;-74
2023/09/03 05:05:01;;;;;;;18.10;17.00;;;20.90;99.90;;;;;;5031126;28;20034;-75
2023/09/03 05:07:27;;;;;;;43.25;40.72;;;20.90;99.90;;;;;;5030979;28;20034;-74
2023/09/03 05:09:53;;;;;;;43.13;40.78;;;20.80;99.90;;;;;;5031424;28;20388;-74
2023/09/03 05:12:19;;;;;;;59.10;55.17;;;20.80;99.90;;;;;;5032383;28;20027;-74
2023/09/03 05:14:46;;;;;;;53.55;50.30;;;20.90;99.90;;;;;;5032303;28;20029;-74
2023/09/03 05:17:12;;;;;;;30.13;28.30;;;20.80;99.90;;;;;;5031802;28;20040;-74
2023/09/03 05:19:39;;;;;;;65.47;61.65;;;20.80;99.90;;;;;;5032348;28;20033;-74
2023/09/03 05:22:05;;;;;;;41.13;38.58;;;20.80;99.90;;;;;;5031845;28;20106;-74
2023/09/03 05:24:31;;;;;;;30.83;29.08;;;20.80;99.90;;;;;;5031155;28;20025;-75
2023/09/03 05:26:58;;;;;;;62.20;59.00;;;20.80;99.90;;;;;;5032128;28;20056;-74
2023/09/03 05:29:24;;;;;;;40.63;38.22;;;20.60;99.90;;;;;;5032228;28;20022;-74
2023/09/03 05:31:50;;;;;;;36.90;34.60;;;20.60;99.90;;;;;;5030353;28;20038;-74
2023/09/03 05:34:16;;;;;;;18.35;17.08;;;20.40;99.90;;;;;;5032118;28;20382;-75
2023/09/03 05:36:42;;;;;;;19.52;17.80;;;20.20;99.90;;;;;;5031744;28;20029;-74
2023/09/03 05:39:08;;;;;;;16.02;14.63;;;20.20;99.90;;;;;;5032240;28;20471;-74
2023/09/03 05:41:34;;;;;;;16.35;15.05;;;20.30;99.90;;;;;;5032056;28;20029;-74
2023/09/03 05:44:08;;;;;;;17.25;15.90;;;20.30;99.90;;;;;;5032245;28;20470;-74
2023/09/03 05:46:38;;;;;;;16.05;14.63;;;20.20;99.90;;;;;;5031663;28;20398;-74
2023/09/03 05:49:04;;;;;;;15.38;14.13;;;20.10;99.90;;;;;;5032087;28;20030;-75
2023/09/03 05:51:30;;;;;;;39.58;28.90;;;20.10;99.90;;;;;;4997516;28;20037;-75
2023/09/03 05:53:56;;;;;;;108.90;67.13;;;20.00;99.90;;;;;;5030681;28;20513;-75
2023/09/03 05:56:22;;;;;;;28.98;25.90;;;19.90;99.90;;;;;;5032056;28;20041;-75
2023/09/03 05:58:49;;;;;;;15.55;14.15;;;20.00;99.90;;;;;;5031987;28;20029;-74
2023/09/03 06:01:16;;;;;;;16.73;15.40;;;20.00;99.90;;;;;;5030287;28;20026;-74
2023/09/03 06:03:42;;;;;;;18.58;16.60;;;20.00;99.90;;;;;;5031854;28;20025;-74
2023/09/03 06:06:10;;;;;;;15.25;14.15;;;20.00;99.90;;;;;;5031484;28;20029;-75
2023/09/03 06:08:36;;;;;;;23.15;21.65;;;20.00;99.90;;;;;;5030815;28;20022;-75
2023/09/03 06:11:03;;;;;;;63.00;59.63;;;20.10;99.90;;;;;;5034289;28;20025;-75
2023/09/03 06:13:33;;;;;;;71.35;67.15;;;20.20;99.90;;;;;;5035544;28;20022;-75
2023/09/03 06:15:59;;;;;;;18.08;16.77;;;20.30;99.90;;;;;;5035409;28;20375;-73
2023/09/03 06:18:25;;;;;;;43.35;40.90;;;20.40;99.90;;;;;;5034345;28;20036;-74
2023/09/03 06:20:51;;;;;;;45.40;43.05;;;20.50;99.90;;;;;;5035161;28;20022;-75
2023/09/03 06:23:18;;;;;;;26.52;25.00;;;20.60;99.90;;;;;;5034469;28;20034;-75
2023/09/03 06:25:45;;;;;;;32.47;30.63;;;20.80;99.90;;;;;;5017638;28;20038;-75
2023/09/03 06:28:11;;;;;;;28.90;27.27;;;20.80;99.90;;;;;;5034148;28;20479;-75
2023/09/03 06:30:38;;;;;;;86.35;81.70;;;20.80;99.90;;;;;;5033459;28;20034;-75
2023/09/03 06:33:04;;;;;;;70.88;67.20;;;20.90;99.90;;;;;;5033985;28;20034;-75
2023/09/03 06:35:30;;;;;;;43.47;41.20;;;21.10;99.90;;;;;;5033418;28;20033;-74
2023/09/03 06:37:57;;;;;;;45.88;43.22;;;21.20;99.90;;;;;;5017661;28;20022;-75
2023/09/03 06:40:23;;;;;;;36.90;34.88;;;21.20;99.90;;;;;;5034852;28;20036;-75
2023/09/03 06:42:50;;;;;;;44.70;42.38;;;21.20;99.90;;;;;;5034798;28;20021;-75
2023/09/03 06:45:17;;;;;;;49.00;46.42;;;21.30;99.90;;;;;;5033379;28;20052;-74
2023/09/03 06:47:43;;;;;;;41.20;38.88;;;21.40;99.90;;;;;;5033385;28;20037;-71
2023/09/03 06:50:09;;;;;;;48.70;46.15;;;21.40;99.90;;;;;;5016746;28;20501;-74
2023/09/03 06:52:35;;;;;;;56.63;53.80;;;21.40;99.90;;;;;;5034705;28;20057;-75
2023/09/03 06:55:02;;;;;;;50.65;47.80;;;21.60;99.90;;;;;;5033679;28;20022;-74
2023/09/03 06:57:28;;;;;;;116.88;111.20;;;21.70;99.90;;;;;;5033595;28;20509;-74
2023/09/03 06:59:54;;;;;;;100.63;95.68;;;21.80;99.90;;;;;;5033599;28;20044;-74
2023/09/03 07:02:21;;;;;;;80.78;76.85;;;21.90;99.90;;;;;;5032704;28;20049;-73
2023/09/03 07:04:47;;;;;;;103.35;98.20;;;21.90;99.90;;;;;;5033409;28;20041;-74
2023/09/03 07:07:13;;;;;;;274.00;260.92;;;21.90;99.90;;;;;;5040075;28;20379;-75
2023/09/03 07:09:39;;;;;;;257.52;245.52;;;22.10;99.90;;;;;;5034579;28;20034;-75
2023/09/03 07:12:05;;;;;;;205.80;196.32;;;22.20;99.90;;;;;;5034455;28;20025;-75
2023/09/03 07:14:32;;;;;;;228.02;217.35;;;22.40;99.90;;;;;;5033255;28;20029;-75
2023/09/03 07:16:59;;;;;;;254.60;242.80;;;22.50;99.90;;;;;;5015772;28;20521;-75
2023/09/03 07:19:26;;;;;;;245.68;234.30;;;22.60;99.90;;;;;;5034372;28;20026;-75
2023/09/03 07:21:52;;;;;;;241.38;230.27;;;22.70;99.90;;;;;;5015704;28;20045;-75
2023/09/03 07:24:19;;;;;;;104.28;99.25;;;22.80;99.90;;;;;;5033137;28;20030;-75
2023/09/03 07:26:45;;;;;;;134.80;128.35;;;22.90;99.90;;;;;;5034204;28;20033;-75
2023/09/03 07:29:12;;;;;;;186.15;177.38;;;23.00;99.90;;;;;;5032783;28;20044;-74
2023/09/03 07:31:41;;;;;;;146.35;139.48;;;23.00;99.90;;;;;;5031930;28;20037;-74
2023/09/03 07:34:10;;;;;;;120.75;114.93;;;23.00;99.90;;;;;;5032998;28;20025;-75
2023/09/03 07:36:37;;;;;;;122.40;116.50;;;23.10;99.90;;;;;;5034087;28;20029;-74
2023/09/03 07:39:06;;;;;;;125.72;119.40;;;23.10;99.90;;;;;;5034053;28;20483;-75
2023/09/03 07:41:32;;;;;;;141.73;134.77;;;23.00;99.90;;;;;;5032755;28;20044;-74
2023/09/03 07:43:59;;;;;;;114.50;108.90;;;23.00;99.90;;;;;;5016351;28;20489;-73
2023/09/03 07:46:25;;;;;;;126.32;120.28;;;23.00;99.90;;;;;;5033081;28;20060;-74
2023/09/03 07:48:52;;;;;;;96.40;91.78;;;23.10;99.90;;;;;;5016332;28;20028;-74
2023/09/03 07:51:19;;;;;;;108.20;102.95;;;23.30;99.90;;;;;;5032621;28;20029;-75
2023/09/03 07:53:47;;;;;;;140.00;133.05;;;23.40;99.90;;;;;;5032407;28;20398;-75
2023/09/03 07:56:13;;;;;;;44.33;41.88;;;23.50;99.90;;;;;;5033715;28;20029;-74
2023/09/03 07:58:42;;;;;;;61.65;58.53;;;23.70;99.90;;;;;;5033867;28;20041;-75
2023/09/03 08:01:12;;;;;;;55.45;52.15;;;23.90;99.90;;;;;;5033195;28;20040;-75
2023/09/03 08:03:38;;;;;;;70.47;66.83;;;24.00;99.90;;;;;;5033494;28;20022;-75
2023/09/03 08:06:07;;;;;;;78.32;74.43;;;24.00;99.90;;;;;;5032251;28;20264;-74
2023/09/03 08:08:34;;;;;;;75.05;71.15;;;24.10;99.90;;;;;;5032278;28;20441;-75
2023/09/03 08:11:00;;;;;;;67.55;64.22;;;24.30;99.90;;;;;;5032238;28;20382;-75
2023/09/03 08:13:26;;;;;;;85.38;81.22;;;24.30;99.90;;;;;;5032102;28;20037;-75
2023/09/03 08:15:52;;;;;;;85.32;81.20;;;24.30;99.90;;;;;;5032583;28;20029;-75
2023/09/03 08:18:19;;;;;;;84.82;80.47;;;24.30;99.90;;;;;;5031963;28;20033;-74
2023/09/03 08:20:45;;;;;;;78.32;74.35;;;24.50;99.90;;;;;;5033129;28;20049;-74
2023/09/03 08:23:12;;;;;;;83.90;79.50;;;24.70;99.90;;;;;;5032028;28;20025;-75
2023/09/03 08:25:39;;;;;;;82.18;78.13;;;24.80;99.90;;;;;;5031910;28;20040;-75
2023/09/03 08:28:06;;;;;;;84.50;80.35;;;24.90;99.90;;;;;;5031748;28;20029;-75
2023/09/03 08:30:32;;;;;;;85.70;81.47;;;24.90;99.90;;;;;;5031331;28;20030;-76
2023/09/03 08:32:58;;;;;;;97.63;92.82;;;25.00;99.90;;;;;;5032738;28;20389;-76
2023/09/03 08:35:24;;;;;;;92.78;88.07;;;25.00;99.90;;;;;;5033210;28;20037;-74
2023/09/03 08:37:51;;;;;;;76.82;73.03;;;25.00;99.90;;;;;;5032899;28;20029;-75
2023/09/03 08:40:19;;;;;;;83.40;79.10;;;25.10;99.90;;;;;;5032967;28;20025;-75
2023/09/03 08:42:46;;;;;;;70.65;67.15;;;25.30;99.90;;;;;;5032755;28;20030;-75
2023/09/03 08:45:12;;;;;;;69.70;66.13;;;25.40;99.90;;;;;;5032035;28;20036;-75
2023/09/03 08:47:40;;;;;;;65.22;61.90;;;25.40;99.90;;;;;;5032647;28;20044;-75
2023/09/03 08:50:07;;;;;;;79.25;75.30;;;25.40;99.90;;;;;;5031451;28;20021;-75
2023/09/03 08:52:34;;;;;;;69.75;66.30;;;25.50;99.90;;;;;;5032604;28;20033;-76
2023/09/03 08:55:00;;;;;;;55.78;52.78;;;25.70;99.90;;;;;;5031353;28;20029;-75
2023/09/03 08:57:28;;;;;;;49.92;47.17;;;25.90;99.90;;;;;;5032650;28;20037;-75
2023/09/03 08:59:56;;;;;;;65.07;61.60;;;26.00;99.90;;;;;;5031029;28;20333;-75
2023/09/03 09:02:23;;;;;;;62.08;58.88;;;26.30;99.90;;;;;;5032011;28;20490;-75
2023/09/03 09:04:49;;;;;;;70.40;66.35;;;26.30;99.90;;;;;;5031180;28;20029;-75
2023/09/03 09:07:15;;;;;;;88.88;84.47;;;26.40;99.90;;;;;;5031172;28;20048;-75
2023/09/03 09:09:41;;;;;;;83.15;78.82;;;26.40;99.90;;;;;;5031157;28;20025;-75
2023/09/03 09:12:28;;;;;;;155.38;147.60;;;26.60;99.90;;;;;;5031199;28;20029;-75
2023/09/03 09:15:01;;;;;;;98.90;93.90;;;26.80;99.90;;;;;;5030811;28;20383;-75
2023/09/03 09:17:30;;;;;;;141.00;133.88;;;26.90;99.90;;;;;;5030372;28;20379;-75
2023/09/03 09:19:59;;;;;;;131.48;124.75;;;27.00;99.90;;;;;;5032370;28;20021;-75
2023/09/03 09:22:25;;;;;;;143.80;136.43;;;27.00;99.90;;;;;;5032274;28;20033;-75
2023/09/03 09:24:52;;;;;;;129.93;123.32;;;27.00;99.90;;;;;;5031107;28;20029;-75
2023/09/03 09:27:19;;;;;;;156.60;148.77;;;27.10;99.90;;;;;;5030796;28;20046;-75
2023/09/03 09:29:45;;;;;;;156.02;148.25;;;27.10;99.90;;;;;;5032318;28;20029;-75
2023/09/03 09:32:20;;;;;;;168.63;160.48;;;27.20;99.90;;;;;;5013754;28;20378;-75
2023/09/03 09:34:46;;;;;;;135.50;128.57;;;27.10;99.90;;;;;;5014745;28;20036;-75
2023/09/03 09:37:15;;;;;;;120.00;113.97;;;27.10;99.90;;;;;;5031089;28;20028;-74
2023/09/03 09:39:48;;;;;;;142.50;135.50;;;27.10;99.90;;;;;;5014666;28;20034;-75
2023/09/03 09:42:18;;;;;;;119.07;113.20;;;27.30;99.90;;;;;;5030415;28;20036;-74
2023/09/03 09:44:50;;;;;;;118.50;112.45;;;27.20;99.90;;;;;;5017099;28;20025;-74
2023/09/03 09:47:17;;;;;;;82.47;78.32;;;27.30;99.90;;;;;;5035574;28;20044;-74
2023/09/03 09:49:44;;;;;;;121.43;115.32;;;27.30;99.90;;;;;;5018459;28;20033;-75
2023/09/03 09:52:13;;;;;;;79.82;75.78;;;27.40;99.90;;;;;;5034872;28;20037;-75
2023/09/03 09:54:40;;;;;;;84.10;79.65;;;27.60;99.90;;;;;;5036058;28;20049;-74
2023/09/03 09:57:22;;;;;;;110.72;105.28;;;27.80;99.90;;;;;;5035494;28;20034;-75
2023/09/03 09:59:56;;;;;;;120.97;114.97;;;27.80;99.90;;;;;;5034683;28;20034;-75
2023/09/03 10:02:22;;;;;;;190.40;180.75;;;27.80;99.90;;;;;;5035603;28;20041;-75
2023/09/03 10:04:49;;;;;;;119.15;113.28;;;27.90;99.90;;;;;;5035683;28;20033;-75
2023/09/03 10:07:15;;;;;;;136.80;130.20;;;28.00;99.90;;;;;;5035714;28;20038;-75
2023/09/03 10:09:44;;;;;;;136.73;130.00;;;28.00;99.90;;;;;;5035702;28;20030;-75
2023/09/03 10:12:10;;;;;;;131.90;125.40;;;28.10;99.90;;;;;;5034290;28;20029;-75
2023/09/03 10:14:36;;;;;;;130.70;124.38;;;28.10;99.90;;;;;;5034482;28;20037;-75
2023/09/03 10:17:04;;;;;;;162.60;154.43;;;28.10;99.90;;;;;;5035142;28;20402;-75
2023/09/03 10:19:48;;;;;;;159.32;151.32;;;28.30;99.90;;;;;;5034320;28;20028;-75
2023/09/03 10:22:16;;;;;;;152.95;145.40;;;28.50;99.90;;;;;;5035212;28;20052;-75
2023/09/03 10:24:54;;;;;;;162.80;154.65;;;28.60;99.90;;;;;;5034241;28;20021;-74
2023/09/03 10:27:22;;;;;;;122.40;116.25;;;28.60;99.90;;;;;;5033827;28;20037;-74
2023/09/03 10:29:48;;;;;;;250.27;237.80;;;28.50;99.90;;;;;;5035213;28;20352;-75
2023/09/03 10:32:15;;;;;;;114.75;109.05;;;28.50;99.90;;;;;;5034602;28;20037;-75
2023/09/03 10:34:42;;;;;;;134.50;127.82;;;28.60;99.90;;;;;;5034085;28;20021;-75
2023/09/03 10:37:10;;;;;;;160.07;151.73;;;28.70;99.90;;;;;;5033851;28;20490;-75
2023/09/03 10:39:37;;;;;;;159.10;151.15;;;28.70;99.90;;;;;;5035171;28;20040;-75
2023/09/03 10:42:16;;;;;;;160.27;152.23;;;28.90;99.90;;;;;;5033518;28;20036;-75
2023/09/03 10:44:42;;;;;;;358.65;340.95;;;29.00;99.90;;;;;;5034981;28;20029;-75
2023/09/03 10:47:11;;;;;;;195.45;186.05;;;28.90;99.90;;;;;;5033327;28;20049;-75
2023/09/03 10:49:41;;;;;;;528.80;501.13;;;28.90;99.90;;;;;;5017573;28;20030;-75
2023/09/03 10:52:27;;;;;;;222.32;211.18;;;29.00;99.90;;;;;;5014065;28;20033;-75
2023/09/03 10:55:12;;;;;;;279.17;265.50;;;29.00;99.90;;;;;;5014461;28;20475;-75
2023/09/03 10:57:38;;;;;;;212.13;201.70;;;29.00;99.90;;;;;;5014525;28;20026;-75
2023/09/03 11:00:07;;;;;;;407.95;387.35;;;29.00;99.90;;;;;;5013294;28;20030;-74
2023/09/03 11:02:34;;;;;;;279.77;266.45;;;29.10;99.90;;;;;;5014899;28;20033;-75
2023/09/03 11:05:09;;;;;;;514.33;488.02;;;29.10;99.90;;;;;;5013704;28;20486;-75
2023/09/03 11:07:36;;;;;;;243.18;231.38;;;29.20;99.90;;;;;;5014763;28;20479;-75
2023/09/03 11:10:20;;;;;;;636.33;600.42;;;29.30;99.90;;;;;;5013400;28;20420;-75
2023/09/03 11:12:49;;;;;;;561.47;531.80;;;29.40;99.90;;;;;;5014659;28;20037;-75
2023/09/03 11:15:15;;;;;;;565.60;535.95;;;29.30;99.90;;;;;;5013064;28;20022;-75
2023/09/03 11:17:42;;;;;;;511.30;484.88;;;29.40;99.90;;;;;;5013381;28;20396;-75
2023/09/03 11:20:10;;;;;;;282.73;268.95;;;29.40;99.90;;;;;;5013256;28;20045;-75
2023/09/03 11:22:37;;;;;;;666.42;628.83;;;29.40;99.90;;;;;;5013440;28;20025;-75
2023/09/03 11:25:06;;;;;;;582.63;550.97;;;29.50;99.90;;;;;;5012933;28;20391;-75
2023/09/03 11:27:32;;;;;;;582.35;551.13;;;29.50;99.90;;;;;;5013309;28;20383;-75
2023/09/03 11:30:07;;;;;;;574.17;543.05;;;29.50;99.90;;;;;;5013289;28;20049;-75
2023/09/03 11:32:39;;;;;;;542.92;512.78;;;29.50;99.90;;;;;;5029503;28;20034;-75
2023/09/03 11:35:06;;;;;;;734.97;691.08;;;29.50;99.90;;;;;;5034000;28;21710;-75
2023/09/03 11:37:34;;;;;;;633.60;597.63;;;29.40;99.90;;;;;;5032811;28;20033;-75
2023/09/03 11:40:00;;;;;;;666.60;628.55;;;29.40;99.90;;;;;;5016490;28;20022;-74
2023/09/03 11:42:26;;;;;;;564.85;534.58;;;29.40;99.90;;;;;;5034009;28;20036;-75
2023/09/03 11:44:53;;;;;;;632.80;597.55;;;29.40;99.90;;;;;;5032703;28;20022;-75
2023/09/03 11:47:19;;;;;;;582.45;549.60;;;29.60;99.90;;;;;;5031905;28;20042;-75
2023/09/03 11:49:47;;;;;;;523.22;495.48;;;29.50;99.90;;;;;;5032641;28;20036;-75
2023/09/03 11:52:15;;;;;;;480.45;455.35;;;29.50;99.90;;;;;;5033737;28;20033;-74
2023/09/03 11:54:44;;;;;;;633.40;597.22;;;29.50;99.90;;;;;;5033681;28;20509;-76
2023/09/03 11:57:13;;;;;;;571.53;539.70;;;29.50;99.90;;;;;;5032795;28;20053;-75
2023/09/03 11:59:39;;;;;;;661.45;622.72;;;29.60;99.90;;;;;;5032433;28;20017;-75
2023/09/03 12:02:05;;;;;;;728.13;684.08;;;29.70;99.90;;;;;;5031891;28;20046;-75
2023/09/03 12:04:31;;;;;;;664.17;625.75;;;29.70;99.90;;;;;;5032309;28;20026;-75
2023/09/03 12:06:57;;;;;;;517.00;488.70;;;29.70;99.90;;;;;;5031411;28;20092;-75
2023/09/03 12:09:25;;;;;;;626.10;590.30;;;29.80;99.90;;;;;;5032248;28;20044;-75
2023/09/03 12:11:51;;;;;;;628.72;592.88;;;29.80;99.90;;;;;;5032308;28;20026;-75
2023/09/03 12:14:30;;;;;;;588.88;555.38;;;29.90;99.90;;;;;;5032144;28;20073;-75
2023/09/03 12:16:56;;;;;;;628.58;591.97;;;30.00;99.90;;;;;;5031653;28;20033;-75
2023/09/03 12:19:22;;;;;;;633.80;597.40;;;29.90;99.90;;;;;;5032021;28;20032;-75
2023/09/03 12:21:51;;;;;;;662.90;624.33;;;29.90;99.90;;;;;;5032869;28;20033;-75
2023/09/03 12:24:25;;;;;;;629.28;593.38;;;30.00;99.90;;;;;;5031944;28;20037;-75
2023/09/03 12:26:58;;;;;;;581.72;549.10;;;30.00;99.90;;;;;;5031695;28;20026;-75